No.36 Oyarikimaru — JK5430 — position and weather

sailwx.info

Track history (hours):
 
Tides and Currents Weather Stations Pressure Air Temp Water Temp Dewpoint Dewpoint Depression Visibility Wind Speed Wind Dir Waves Ship Positions

No.36 Oyarikimaru

Last reported at 2018-Jan-10 01:14 UTC. Time now 2018-Jan-18 17:28 UTC.
Position N 34°11' E 132°20'.
Warning: this ship's position is 8 days out of date.

Length 63 m.

Type: Cargo ship. MMSI: 431400544.

Date/timePositionNaut miles runAvg speedWind from/ knotsBaromVisibWave heightAir tempDewpointWater temp
2018-Jan-10 01:14N 34°11' E 132°20'310.9
2018-Jan-10 01:00N 34°14' E 132°21'510.9
2018-Jan-10 00:30N 34°19' E 132°22'2 4.3
2018-Jan-09 23:59N 34°21' E 132°22'0 0.0
2018-Jan-09 23:29N 34°21' E 132°22'0 0.0
2018-Jan-09 22:59N 34°21' E 132°22'0 0.0
2018-Jan-09 22:29N 34°21' E 132°22'0 0.0
2018-Jan-09 21:59N 34°21' E 132°22'0 0.0
2018-Jan-09 21:29N 34°21' E 132°22'0 0.0
2018-Jan-09 20:56N 34°21' E 132°22'0 0.0
2018-Jan-09 20:17N 34°21' E 132°22'0 0.0
2018-Jan-09 19:59N 34°21' E 132°22'0 0.0
2018-Jan-09 19:29N 34°21' E 132°22'0 0.0
2018-Jan-09 18:59N 34°21' E 132°22'0 0.0
2018-Jan-09 18:29N 34°21' E 132°22'0 0.0
2018-Jan-09 17:56N 34°21' E 132°22'0 0.0
2018-Jan-09 17:29N 34°21' E 132°22'0 0.0
2018-Jan-09 16:59N 34°21' E 132°22'0 0.0
2018-Jan-09 16:29N 34°21' E 132°22'0 0.0
2018-Jan-09 15:59N 34°21' E 132°22'0 0.0
2018-Jan-09 15:29N 34°21' E 132°22'0 0.0
2018-Jan-09 14:56N 34°21' E 132°22'0 0.0
2018-Jan-09 14:29N 34°21' E 132°22'0 0.0
2018-Jan-09 13:59N 34°21' E 132°22'0 0.0
2018-Jan-09 13:29N 34°21' E 132°22'0 0.0
2018-Jan-09 12:59N 34°21' E 132°22'0 0.0
2018-Jan-09 12:26N 34°21' E 132°22'0 0.0
2018-Jan-09 11:59N 34°21' E 132°22'0 0.0
2018-Jan-09 11:29N 34°21' E 132°22'0 0.0
2018-Jan-09 10:59N 34°21' E 132°22'0 0.0
2018-Jan-09 10:26N 34°21' E 132°22'0 0.0
2018-Jan-09 09:53N 34°21' E 132°22'0 0.0
2018-Jan-09 09:29N 34°21' E 132°22'0 0.0
2018-Jan-09 08:59N 34°21' E 132°22'4 7.8
2018-Jan-09 08:30N 34°17' E 132°21'1112.5
2018-Jan-09 07:39N 34°07' E 132°17'212.8
2018-Jan-09 07:30N 34°06' E 132°16'  
2018-Jan-05 14:10N 33°21' E 131°52'612.4
2018-Jan-05 13:41N 33°27' E 131°50'312.0
2018-Jan-05 13:28N 33°29' E 131°49'611.9
2018-Jan-05 13:00N 33°35' E 131°47'612.0
2018-Jan-05 12:30N 33°39' E 131°42'611.7
2018-Jan-05 12:00N 33°42' E 131°36'611.6
2018-Jan-05 11:30N 33°44' E 131°30'612.2
2018-Jan-05 11:00N 33°47' E 131°23'612.3
2018-Jan-05 10:30N 33°49' E 131°16'612.4
2018-Jan-05 10:00N 33°52' E 131°10'612.7
2018-Jan-05 09:30N 33°56' E 131°04'611.3
2018-Jan-05 09:00N 33°57' E 130°57'510.3
2018-Jan-05 08:30N 33°55' E 130°52'1 1.0
2018-Jan-05 07:58N 33°54' E 130°51'0 0.0
2018-Jan-05 07:28N 33°54' E 130°51'0 0.0
2018-Jan-05 06:58N 33°54' E 130°51'0 0.0
2018-Jan-05 06:28N 33°54' E 130°51'0 0.0
2018-Jan-05 05:58N 33°54' E 130°51'0 0.0
2018-Jan-05 05:28N 33°54' E 130°51'0 0.0
2018-Jan-05 04:58N 33°54' E 130°51'0 0.0
2018-Jan-05 04:28N 33°54' E 130°51'0 0.0
2018-Jan-05 03:55N 33°54' E 130°51'0 0.0
2018-Jan-05 03:28N 33°54' E 130°51'0 0.0
2018-Jan-05 02:55N 33°54' E 130°51'0 0.0
2018-Jan-05 02:28N 33°54' E 130°51'0 0.0
2018-Jan-05 01:58N 33°54' E 130°51'0 0.0
2018-Jan-05 01:25N 33°54' E 130°51'1 2.4
2018-Jan-05 01:00N 33°55' E 130°52'1 2.7
2018-Jan-05 00:29N 33°55' E 130°54'0 0.0
2018-Jan-04 23:59N 33°55' E 130°54'0 0.1
2018-Jan-04 23:29N 33°55' E 130°54'0 0.1
2018-Jan-04 22:59N 33°55' E 130°54'0 0.0
2018-Jan-04 22:29N 33°55' E 130°54'0 0.1
2018-Jan-04 21:59N 33°55' E 130°54'1 2.0
2018-Jan-04 21:30N 33°55' E 130°54'4 7.7
2018-Jan-04 21:00N 33°58' E 130°57'3 6.7
2018-Jan-04 20:30N 33°59' E 131°01'611.3
2018-Jan-04 20:00N 33°55' E 131°07'611.3
2018-Jan-04 19:30N 33°53' E 131°13'611.5
2018-Jan-04 19:00N 33°51' E 131°19'611.5
2018-Jan-04 18:30N 33°50' E 131°26'711.6
2018-Jan-04 17:54N 33°48' E 131°34'5510.7
2018-Jan-04 12:44N 34°03' E 132°38'  
Track history (hours):
 
Tides and Currents Weather Stations Pressure Air Temp Water Temp Dewpoint Dewpoint Depression Visibility Wind Speed Wind Dir Waves Ship Positions

No.36 Oyarikimaru

Last reported at 2018-Jan-10 01:14 UTC. Time now 2018-Jan-18 17:28 UTC.
Position N 34°11' E 132°20'.
Warning: this ship's position is 8 days out of date.

Length 63 m.

Type: Cargo ship. MMSI: 431400544.

Date/timePositionNaut miles runAvg speedWind from/ knotsBaromVisibWave heightAir tempDewpointWater temp
2018-Jan-10 01:14N 34°11' E 132°20'310.9
2018-Jan-10 01:00N 34°14' E 132°21'510.9
2018-Jan-10 00:30N 34°19' E 132°22'2 4.3
2018-Jan-09 23:59N 34°21' E 132°22'0 0.0
2018-Jan-09 23:29N 34°21' E 132°22'0 0.0
2018-Jan-09 22:59N 34°21' E 132°22'0 0.0
2018-Jan-09 22:29N 34°21' E 132°22'0 0.0
2018-Jan-09 21:59N 34°21' E 132°22'0 0.0
2018-Jan-09 21:29N 34°21' E 132°22'0 0.0
2018-Jan-09 20:56N 34°21' E 132°22'0 0.0
2018-Jan-09 20:17N 34°21' E 132°22'0 0.0
2018-Jan-09 19:59N 34°21' E 132°22'0 0.0
2018-Jan-09 19:29N 34°21' E 132°22'0 0.0
2018-Jan-09 18:59N 34°21' E 132°22'0 0.0
2018-Jan-09 18:29N 34°21' E 132°22'0 0.0
2018-Jan-09 17:56N 34°21' E 132°22'0 0.0
2018-Jan-09 17:29N 34°21' E 132°22'0 0.0
2018-Jan-09 16:59N 34°21' E 132°22'0 0.0
2018-Jan-09 16:29N 34°21' E 132°22'0 0.0
2018-Jan-09 15:59N 34°21' E 132°22'0 0.0
2018-Jan-09 15:29N 34°21' E 132°22'0 0.0
2018-Jan-09 14:56N 34°21' E 132°22'0 0.0
2018-Jan-09 14:29N 34°21' E 132°22'0 0.0
2018-Jan-09 13:59N 34°21' E 132°22'0 0.0
2018-Jan-09 13:29N 34°21' E 132°22'0 0.0
2018-Jan-09 12:59N 34°21' E 132°22'0 0.0
2018-Jan-09 12:26N 34°21' E 132°22'0 0.0
2018-Jan-09 11:59N 34°21' E 132°22'0 0.0
2018-Jan-09 11:29N 34°21' E 132°22'0 0.0
2018-Jan-09 10:59N 34°21' E 132°22'0 0.0
2018-Jan-09 10:26N 34°21' E 132°22'0 0.0
2018-Jan-09 09:53N 34°21' E 132°22'0 0.0
2018-Jan-09 09:29N 34°21' E 132°22'0 0.0
2018-Jan-09 08:59N 34°21' E 132°22'4 7.8
2018-Jan-09 08:30N 34°17' E 132°21'1112.5
2018-Jan-09 07:39N 34°07' E 132°17'212.8
2018-Jan-09 07:30N 34°06' E 132°16'  
2018-Jan-05 14:10N 33°21' E 131°52'612.4
2018-Jan-05 13:41N 33°27' E 131°50'312.0
2018-Jan-05 13:28N 33°29' E 131°49'611.9
2018-Jan-05 13:00N 33°35' E 131°47'612.0
2018-Jan-05 12:30N 33°39' E 131°42'611.7
2018-Jan-05 12:00N 33°42' E 131°36'611.6
2018-Jan-05 11:30N 33°44' E 131°30'612.2
2018-Jan-05 11:00N 33°47' E 131°23'612.3
2018-Jan-05 10:30N 33°49' E 131°16'612.4
2018-Jan-05 10:00N 33°52' E 131°10'612.7
2018-Jan-05 09:30N 33°56' E 131°04'611.3
2018-Jan-05 09:00N 33°57' E 130°57'510.3
2018-Jan-05 08:30N 33°55' E 130°52'1 1.0
2018-Jan-05 07:58N 33°54' E 130°51'0 0.0
2018-Jan-05 07:28N 33°54' E 130°51'0 0.0
2018-Jan-05 06:58N 33°54' E 130°51'0 0.0
2018-Jan-05 06:28N 33°54' E 130°51'0 0.0
2018-Jan-05 05:58N 33°54' E 130°51'0 0.0
2018-Jan-05 05:28N 33°54' E 130°51'0 0.0
2018-Jan-05 04:58N 33°54' E 130°51'0 0.0
2018-Jan-05 04:28N 33°54' E 130°51'0 0.0
2018-Jan-05 03:55N 33°54' E 130°51'0 0.0
2018-Jan-05 03:28N 33°54' E 130°51'0 0.0
2018-Jan-05 02:55N 33°54' E 130°51'0 0.0
2018-Jan-05 02:28N 33°54' E 130°51'0 0.0
2018-Jan-05 01:58N 33°54' E 130°51'0 0.0
2018-Jan-05 01:25N 33°54' E 130°51'1 2.4
2018-Jan-05 01:00N 33°55' E 130°52'1 2.7
2018-Jan-05 00:29N 33°55' E 130°54'0 0.0
2018-Jan-04 23:59N 33°55' E 130°54'0 0.1
2018-Jan-04 23:29N 33°55' E 130°54'0 0.1
2018-Jan-04 22:59N 33°55' E 130°54'0 0.0
2018-Jan-04 22:29N 33°55' E 130°54'0 0.1
2018-Jan-04 21:59N 33°55' E 130°54'1 2.0
2018-Jan-04 21:30N 33°55' E 130°54'4 7.7
2018-Jan-04 21:00N 33°58' E 130°57'3 6.7
2018-Jan-04 20:30N 33°59' E 131°01'611.3
2018-Jan-04 20:00N 33°55' E 131°07'611.3
2018-Jan-04 19:30N 33°53' E 131°13'611.5
2018-Jan-04 19:00N 33°51' E 131°19'611.5
2018-Jan-04 18:30N 33°50' E 131°26'711.6
2018-Jan-04 17:54N 33°48' E 131°34'5510.7
2018-Jan-04 12:44N 34°03' E 132°38'  

Dump ship's entire track history